Search for airport 
image banner adimage banner adimage banner ad
image banner ad

9N7 - Farmers Pride

Located in Fredericksburg, United States

ICAO - 9N7, IATA -

Data provided by Airmate  

General information

Coordinates: N40°26'34" W76°26'30"
Elevation is 495 feet MSL.
Magnetic variation is -11° East
View others Airports in Pennsylvania

Operational data

Special qualification required
Current time UTC:
Current local time:
METAR: KMUI 061256Z 30006KT 10SM BKN038 11/02 A3004 RMK AO2A SLP176 T01090020
TAF: TAF AMD KMUI 061325Z 0613/0717 31009KT 9999 BKN045 QNH3002INS BECMG 0614/0615 32012G18KT 9999 SCT045 QNH3004INS BECMG 0622/0623 VRB06KT 9999 BKN050 BKN150 620602 QNH2985INS TX18/0619Z TN07/0710Z
View NOTAMs / SUP AIP / TFR affecting this airport [VIEW]
Communications frequencies: [VIEW]

Runways:

RWY identifierQFULength (ft)Width (ft)SurfaceLDA (ft)
103410150GRASS
283410150GRASS

Airport contact information

Address: Fredericksburg United States

Satellite view of 9N7